This is the latest recevied weather packets stored in our database for station/object N4AR. If no packets are shown the sender has not sent any weather packets the latest 1 day(s).
| Time | Temp. | Humidity | Pressure | Rain* | Wind** | Luminosity | Snow |
|---|---|---|---|---|---|---|---|
| 1778021545 | 26.67° C | 40% | 1013.3 hPa | 0 mm | 0.45 m/s, 72° | 63 W/m² | - |
| 1778021240 | 26.67° C | 40% | 1013.1 hPa | 0 mm | 0.45 m/s, 106° | 146 W/m² | - |
| 1778020938 | 26.67° C | 40% | 1013.3 hPa | 0 mm | 0 m/s | 124 W/m² | - |
| 1778020635 | 26.67° C | 40% | 1013.1 hPa | 0 mm | 0.45 m/s, 91° | 137 W/m² | - |
| 1778020331 | 26.67° C | 40% | 1013.1 hPa | 0 mm | 0.45 m/s, 91° | 96 W/m² | - |
| 1778020027 | 26.67° C | 39% | 1013.4 hPa | 0 mm | 1.79 m/s, 327° | 108 W/m² | - |
| 1778019723 | 26.67° C | 40% | 1013.3 hPa | 0 mm | 0 m/s | 90 W/m² | - |
| 1778019421 | 26.67° C | 39% | 1013.4 hPa | 0 mm | 0.89 m/s, 81° | 76 W/m² | - |
| 1778019117 | 27.22° C | 39% | 1013.5 hPa | 0 mm | 0.45 m/s, 75° | 87 W/m² | - |
| 1778018814 | 27.22° C | 38% | 1013.5 hPa | 0 mm | 0 m/s | 89 W/m² | - |
| 1778018512 | 26.67° C | 38% | 1013.2 hPa | 0 mm | 0.45 m/s, 91° | 122 W/m² | - |
| 1778018210 | 27.22° C | 38% | 1013.4 hPa | 0 mm | 0.45 m/s, 77° | 102 W/m² | - |
| 1778017908 | 27.78° C | 36% | 1013.3 hPa | 0 mm | 0.89 m/s, 73° | 84 W/m² | - |
| 1778017605 | 28.33° C | 35% | 1013.4 hPa | 0 mm | 0.45 m/s, 74° | 95 W/m² | - |
| 1778017302 | 28.89° C | 34% | 1013.3 hPa | 0 mm | 0 m/s | 158 W/m² | - |
| 1778017000 | 28.33° C | 34% | 1013.3 hPa | 0 mm | 0.45 m/s, 90° | 393 W/m² | - |
| 1778016696 | 28.33° C | 33% | 1013.1 hPa | 0 mm | 0.89 m/s, 101° | 190 W/m² | - |
| 1778016392 | 28.89° C | 33% | 1013.3 hPa | 0 mm | 0.45 m/s, 125° | 187 W/m² | - |
| 1778016090 | 28.89° C | 34% | 1013.2 hPa | 0 mm | 0.45 m/s, 67° | 368 W/m² | - |
| 1778015787 | 29.44° C | 33% | 1013 hPa | 0 mm | 0.45 m/s, 90° | 336 W/m² | - |
| 1778015484 | 30° C | 31% | 1013.1 hPa | 0 mm | 0.89 m/s, 77° | 195 W/m² | - |
| 1778015181 | 30.56° C | 30% | 1013.1 hPa | 0 mm | 1.79 m/s, 129° | 497 W/m² | - |
| 1778014877 | 30° C | 30% | 1013.1 hPa | 0 mm | 0.89 m/s, 64° | 522 W/m² | - |
| 1778014575 | 30° C | 30% | 1013 hPa | 0 mm | 1.34 m/s, 97° | 485 W/m² | - |
| 1778014273 | 30.56° C | 30% | 1013.1 hPa | 0 mm | 0.89 m/s, 171° | 526 W/m² | - |
* Rain latest hour (hover to see other rain measurements)
** Current wind speed in m/s (hover to see current wind gust speed)